createdAt,value
2022-11-16T00:03:02.010Z,10.63
2022-11-16T00:08:11.121Z,10.63
2022-11-16T00:13:19.956Z,10.63
2022-11-16T00:18:29.011Z,10.63
2022-11-16T00:23:37.847Z,10.63
2022-11-16T00:28:46.843Z,10.56
2022-11-16T00:38:54.194Z,10.56
2022-11-16T00:44:03.150Z,10.5
2022-11-16T00:49:12.140Z,10.5
2022-11-16T00:54:21.087Z,10.44
2022-11-16T00:59:30.212Z,10.38
2022-11-16T01:04:39.206Z,10.38
2022-11-16T01:09:48.241Z,10.38
2022-11-16T01:14:57.123Z,10.31
2022-11-16T01:20:06.008Z,10.31
2022-11-16T01:25:15.171Z,10.31
2022-11-16T01:30:24.204Z,10.25
2022-11-16T01:35:33.197Z,10.19
2022-11-16T01:50:38.872Z,10.19
2022-11-16T01:55:47.978Z,10.31
2022-11-16T02:00:56.960Z,10.25
2022-11-16T02:06:06.053Z,10.31
2022-11-16T02:11:15.053Z,10.31
2022-11-16T02:16:24.070Z,10.31
2022-11-16T02:21:33.034Z,10.31
2022-11-16T02:31:40.416Z,10.31
2022-11-16T02:36:49.516Z,10.31
2022-11-16T02:41:58.556Z,10.31
2022-11-16T02:47:07.617Z,10.31
2022-11-16T02:52:16.559Z,10.25
2022-11-16T02:57:25.582Z,10.25
2022-11-16T03:02:34.626Z,10.19
2022-11-16T03:07:43.633Z,10.13
2022-11-16T03:12:52.508Z,10.13
2022-11-16T03:18:01.354Z,10.13
2022-11-16T03:23:10.423Z,10
2022-11-16T03:28:19.445Z,9.88
2022-11-16T03:38:26.599Z,9.81
2022-11-16T03:43:35.680Z,9.88
2022-11-16T03:48:44.470Z,9.88
2022-11-16T03:53:53.483Z,9.88
2022-11-16T03:59:02.442Z,9.88
2022-11-16T04:04:11.383Z,9.94
2022-11-16T04:09:20.412Z,9.94
2022-11-16T04:14:29.327Z,10
2022-11-16T04:19:38.497Z,10
2022-11-16T04:24:47.523Z,10.06
2022-11-16T04:29:56.620Z,10.06
2022-11-16T04:35:05.582Z,10.06
2022-11-16T04:40:14.660Z,10.13
2022-11-16T04:45:23.654Z,10.13
2022-11-16T04:50:32.782Z,10.13
2022-11-16T05:00:40.027Z,10.19
2022-11-16T05:10:47.397Z,10.19
2022-11-16T05:21:05.592Z,10.19
2022-11-16T05:26:14.462Z,10.19
2022-11-16T05:31:23.475Z,10.19
2022-11-16T05:36:32.386Z,10.19
2022-11-16T05:41:41.208Z,10.13
2022-11-16T05:46:50.005Z,10.13
2022-11-16T05:51:58.995Z,10.19
2022-11-16T05:57:07.920Z,10.19
2022-11-16T06:02:16.851Z,10.13
2022-11-16T06:07:25.980Z,10.13
2022-11-16T06:12:34.921Z,10.06
2022-11-16T06:17:44.082Z,10.06
2022-11-16T06:22:52.751Z,10.06
2022-11-16T06:28:05.383Z,10.06
2022-11-16T06:33:11.062Z,9.94
2022-11-16T06:38:19.553Z,9.88
2022-11-16T06:43:28.442Z,9.75
2022-11-16T06:48:37.737Z,9.63
2022-11-16T06:53:46.587Z,9.63
2022-11-16T06:58:55.481Z,9.5
2022-11-16T07:04:04.709Z,9.38
2022-11-16T07:09:13.669Z,9.31
2022-11-16T07:14:22.503Z,9.38
2022-11-16T07:19:31.521Z,9.31
2022-11-16T07:24:40.512Z,9.19
2022-11-16T07:34:48.020Z,9.31
2022-11-16T07:39:56.928Z,9.31
2022-11-16T07:45:06.239Z,9.63
2022-11-16T07:50:15.598Z,9.94
2022-11-16T07:55:24.474Z,10.25
2022-11-16T08:00:33.284Z,10.38
2022-11-16T08:05:42.422Z,10.56
2022-11-16T08:10:51.512Z,10.75
2022-11-16T08:16:00.488Z,10.69
2022-11-16T08:21:09.787Z,10.63
2022-11-16T08:26:18.943Z,10.81
2022-11-16T08:31:28.189Z,11.12
2022-11-16T08:36:37.322Z,11.25
2022-11-16T08:41:46.083Z,11.19
2022-11-16T08:46:55.016Z,11.06
2022-11-16T08:52:04.226Z,11
2022-11-16T08:57:13.308Z,11.31
2022-11-16T09:07:31.760Z,11.88
2022-11-16T09:12:40.798Z,11.88
2022-11-16T09:17:49.857Z,11.88
2022-11-16T09:22:59.940Z,12.06
2022-11-16T09:28:09.024Z,12.37
2022-11-16T09:33:17.578Z,12.25
2022-11-16T09:38:40.108Z,12.56
2022-11-16T09:43:38.488Z,13.06
2022-11-16T09:48:44.572Z,12.88
2022-11-16T09:53:53.507Z,12.81
2022-11-16T09:59:02.268Z,13
2022-11-16T10:04:11.281Z,12.81
2022-11-16T10:14:17.976Z,12.37
2022-11-16T10:19:26.894Z,12.56
2022-11-16T10:24:35.833Z,12.63
2022-11-16T10:29:44.962Z,12.69
2022-11-16T10:34:58.774Z,12.75
2022-11-16T10:40:08.089Z,12.88
2022-11-16T10:45:17.624Z,13.62
2022-11-16T10:50:29.858Z,14.5
2022-11-16T10:55:38.921Z,14.06
2022-11-16T11:00:48.034Z,13.81
2022-11-16T11:05:56.516Z,13.56
2022-11-16T11:11:04.835Z,12.75
2022-11-16T11:16:13.662Z,12.56
2022-11-16T11:21:22.316Z,12.69
2022-11-16T11:26:36.118Z,12.75
2022-11-16T11:31:40.411Z,12.69
2022-11-16T11:36:49.099Z,12.56
2022-11-16T11:41:58.232Z,12.63
2022-11-16T11:47:42.678Z,12.63
2022-11-16T11:52:16.313Z,12.69
2022-11-16T11:57:25.378Z,12.75
2022-11-16T12:02:34.737Z,12.75
2022-11-16T12:07:43.672Z,12.69
2022-11-16T12:12:52.443Z,12.56
2022-11-16T12:18:01.526Z,12.56
2022-11-16T12:23:10.406Z,12.63
2022-11-16T12:28:19.603Z,12.94
2022-11-16T12:33:29.178Z,13.56
2022-11-16T12:38:38.563Z,13.69
2022-11-16T12:43:47.142Z,13.38
2022-11-16T12:53:55.177Z,14.19
2022-11-16T12:59:04.614Z,14.31
2022-11-16T13:04:12.596Z,13.56
2022-11-16T13:09:21.100Z,13.06
2022-11-16T13:14:29.910Z,13
2022-11-16T13:19:39.901Z,13.81
2022-11-16T13:24:49.767Z,14.69
2022-11-16T13:29:58.143Z,14.63
2022-11-16T13:35:06.674Z,13.88
2022-11-16T13:40:15.401Z,14.75
2022-11-16T13:45:24.664Z,14.19
2022-11-16T13:50:37.176Z,13.38
2022-11-16T13:55:41.912Z,13.13
2022-11-16T14:00:51.281Z,13.31
2022-11-16T14:06:00.267Z,13.5
2022-11-16T14:11:09.312Z,13.56
2022-11-16T14:16:18.030Z,13.31
2022-11-16T14:21:26.897Z,13
2022-11-16T14:26:35.974Z,12.75
2022-11-16T14:31:44.760Z,12.56
2022-11-16T14:36:53.629Z,12.44
2022-11-16T14:42:02.704Z,12.44
2022-11-16T14:47:11.566Z,12.31
2022-11-16T14:52:20.685Z,12.25
2022-11-16T14:57:29.744Z,12.37
2022-11-16T15:02:38.872Z,12.37
2022-11-16T15:07:47.692Z,12.37
2022-11-16T15:12:56.618Z,12.25
2022-11-16T15:18:05.524Z,12.19
2022-11-16T15:23:14.399Z,11.88
2022-11-16T15:28:23.422Z,11.56
2022-11-16T15:33:32.468Z,11.19
2022-11-16T15:38:40.829Z,10.69
2022-11-16T15:44:09.306Z,10.31
2022-11-16T15:48:58.547Z,10
2022-11-16T15:54:07.432Z,9.81
2022-11-16T15:59:16.640Z,9.81
2022-11-16T16:04:25.581Z,9.88
2022-11-16T16:09:34.536Z,9.88
2022-11-16T16:14:43.536Z,9.81
2022-11-16T16:19:52.342Z,9.63
2022-11-16T16:25:01.497Z,9.5
2022-11-16T16:30:10.802Z,9.38
2022-11-16T16:35:19.578Z,9.25
2022-11-16T16:40:28.641Z,9.19
2022-11-16T16:50:36.168Z,8.88
2022-11-16T16:55:44.432Z,8.75
2022-11-16T17:00:56.980Z,8.75
2022-11-16T17:06:02.776Z,8.81
2022-11-16T17:11:14.390Z,9
2022-11-16T17:16:23.562Z,9.13
2022-11-16T17:21:32.687Z,9.31
2022-11-16T17:26:41.480Z,9.44
2022-11-16T17:31:50.476Z,9.56
2022-11-16T17:36:59.792Z,9.69
2022-11-16T17:42:08.672Z,9.75
2022-11-16T17:47:17.864Z,9.81
2022-11-16T17:52:26.948Z,9.88
2022-11-16T17:57:35.699Z,9.88
2022-11-16T18:02:45.069Z,9.88
2022-11-16T18:12:52.385Z,9.94
2022-11-16T18:18:01.152Z,9.81
2022-11-16T18:23:10.109Z,9.69
2022-11-16T18:28:19.206Z,9.38
2022-11-16T18:33:30.478Z,9.13
2022-11-16T18:38:36.954Z,9
2022-11-16T18:43:45.789Z,9.13
2022-11-16T18:48:54.875Z,9.56
2022-11-16T18:54:04.085Z,9.94
2022-11-16T18:59:13.208Z,10.06
2022-11-16T19:04:42.347Z,10.06
2022-11-16T19:09:51.498Z,10.13
2022-11-16T19:15:00.343Z,10.06
2022-11-16T19:20:09.219Z,10
2022-11-16T19:25:18.208Z,10
2022-11-16T19:30:27.341Z,10.06
2022-11-16T19:35:36.220Z,10.13
2022-11-16T19:55:50.854Z,10.06
2022-11-16T20:10:56.754Z,9.88
2022-11-16T20:16:05.652Z,9.69
2022-11-16T20:21:14.543Z,9.44
2022-11-16T20:26:23.622Z,9.19
2022-11-16T20:31:32.562Z,9.06
2022-11-16T20:36:41.588Z,9.06
2022-11-16T20:41:50.445Z,9.06
2022-11-16T20:46:59.684Z,9.13
2022-11-16T20:52:08.548Z,9.19
2022-11-16T20:57:17.722Z,9.38
2022-11-16T21:02:26.753Z,9.38
2022-11-16T21:07:35.904Z,9.44
2022-11-16T21:27:39.758Z,9.25
2022-11-16T21:32:48.647Z,9.19
2022-11-16T21:37:57.542Z,9.06
2022-11-16T21:43:06.586Z,9
2022-11-16T21:48:15.591Z,8.94
2022-11-16T21:53:24.602Z,8.88
2022-11-16T21:58:33.596Z,8.88
2022-11-16T22:03:42.598Z,8.94
2022-11-16T22:08:51.663Z,9
2022-11-16T22:14:00.607Z,9
2022-11-16T22:19:09.512Z,9
2022-11-16T22:24:18.686Z,9
2022-11-16T22:29:27.624Z,9.13
2022-11-16T22:34:36.647Z,9.13
2022-11-16T22:54:41.522Z,9.63
2022-11-16T22:59:50.676Z,9.69
2022-11-16T23:04:59.868Z,9.75
2022-11-16T23:10:09.093Z,9.81
2022-11-16T23:15:18.153Z,9.94
2022-11-16T23:20:26.884Z,10
2022-11-16T23:25:35.894Z,9.94
2022-11-16T23:30:44.714Z,9.94
2022-11-16T23:35:53.693Z,9.94
2022-11-16T23:41:02.823Z,10
2022-11-16T23:46:11.613Z,9.94
2022-11-16T23:51:20.467Z,10
2022-11-16T23:56:29.664Z,9.94
